.
WxDataArchive / Data Records for 2012-11-19
2012-11-18 November 2012 2012-11-20

Data Records for Monday, 19 November 2012

Time	Temp	Chill	HIndex	Humid	Dewpt	 Wind 	HiWind	WindDir	Rain 	Barom 
-----	----	-----	------	-----	-----	------	------	-------	-----	----- 
00:00	33.1	33.1	33.1	86	29.4	0	0	---	0.00	30.405 
00:05	32.8	32.8	32.8	86	29.1	0	0	---	0.00	30.405 
00:10	32.7	32.7	32.7	86	29.0	0	0	---	0.00	30.405 
00:15	32.7	32.7	32.7	87	29.3	0	0	---	0.00	30.398 
00:20	32.4	32.4	32.4	87	29.0	0	0	---	0.00	30.398 
00:25	32.2	32.2	32.2	87	28.8	0	0	---	0.00	30.398 
00:30	32.1	32.1	32.1	87	28.7	0	0	---	0.00	30.397 
00:35	31.9	31.9	31.9	87	28.5	0	0	---	0.00	30.397 
00:40	31.8	31.8	31.8	87	28.4	0	0	---	0.00	30.397 
00:45	31.5	31.5	31.5	87	28.1	0	0	---	0.00	30.391 
00:50	31.2	31.2	31.2	87	27.8	0	0	---	0.00	30.391 
00:55	31.0	31.0	31.0	88	27.9	0	0	---	0.00	30.391 
01:00	30.9	30.9	30.9	88	27.8	0	0	---	0.00	30.393 
01:05	30.7	30.7	30.7	88	27.6	0	0	---	0.00	30.393 
01:10	30.6	30.6	30.6	88	27.5	0	0	---	0.00	30.393 
01:15	30.4	30.4	30.4	88	27.3	0	0	---	0.00	30.387 
01:20	30.3	30.3	30.3	88	27.2	0	0	---	0.00	30.387 
01:25	30.1	30.1	30.1	88	27.0	0	0	---	0.00	30.387 
01:30	30.1	30.1	30.1	88	27.0	0	0	---	0.00	30.386 
01:35	30.0	30.0	30.0	88	26.9	0	0	---	0.00	30.386 
01:40	29.8	29.8	29.8	89	27.0	0	0	---	0.00	30.386 
01:45	29.8	29.8	29.8	89	27.0	0	0	---	0.00	30.379 
01:50	29.8	29.8	29.8	89	27.0	0	0	---	0.00	30.379 
01:55	29.8	29.8	29.8	89	27.0	0	0	---	0.00	30.379 
02:00	29.7	29.7	29.7	89	26.9	0	0	---	0.00	30.381 
02:05	29.5	29.5	29.5	89	26.7	0	0	---	0.00	30.381 
02:10	29.4	29.4	29.4	89	26.6	0	0	---	0.00	30.381 
02:15	29.3	29.3	29.3	90	26.7	0	0	---	0.00	30.378 
02:20	29.3	29.3	29.3	90	26.7	0	0	---	0.00	30.378 
02:25	29.1	29.1	29.1	90	26.5	0	0	---	0.00	30.378 
02:30	29.1	29.1	29.1	90	26.5	0	0	---	0.00	30.379 
02:35	29.1	29.1	29.1	90	26.5	0	0	---	0.00	30.379 
02:40	29.0	29.0	29.0	90	26.4	0	0	---	0.00	30.379 
02:45	29.0	29.0	29.0	90	26.4	0	0	---	0.00	30.382 
02:50	28.8	28.8	28.8	90	26.2	0	0	---	0.00	30.382 
02:55	28.7	28.7	28.7	90	26.1	0	0	---	0.00	30.382 
03:00	28.7	28.7	28.7	91	26.4	0	0	---	0.00	30.378 
03:05	28.7	28.7	28.7	91	26.4	0	0	---	0.00	30.378 
03:10	28.7	28.7	28.7	91	26.4	0	0	---	0.00	30.378 
03:15	28.8	28.8	28.8	91	26.5	0	0	---	0.00	30.376 
03:20	28.8	28.8	28.8	91	26.5	0	0	---	0.00	30.376 
03:25	28.7	28.7	28.7	91	26.4	0	0	---	0.00	30.376 
03:30	28.8	28.8	28.8	91	26.5	0	0	---	0.00	30.371 
03:35	29.0	29.0	29.0	91	26.7	0	0	---	0.00	30.371 
03:40	29.0	29.0	29.0	91	26.7	0	0	---	0.00	30.371 
03:45	28.8	28.8	28.8	91	26.5	0	0	---	0.00	30.369 
03:50	28.8	28.8	28.8	91	26.5	0	0	---	0.00	30.369 
03:55	28.8	28.8	28.8	91	26.5	0	0	---	0.00	30.369 
04:00	29.0	29.0	29.0	92	27.0	0	0	---	0.00	30.358 
04:05	29.0	29.0	29.0	92	27.0	0	0	---	0.00	30.358 
04:10	29.0	29.0	29.0	92	27.0	0	0	---	0.00	30.358 
04:15	29.1	29.1	29.1	92	27.1	0	0	---	0.00	30.357 
04:20	29.1	29.1	29.1	92	27.1	0	0	---	0.00	30.357 
04:25	29.1	29.1	29.1	92	27.1	0	0	---	0.00	30.357 
04:30	29.1	29.1	29.1	92	27.1	0	0	---	0.00	30.355 
04:35	29.1	29.1	29.1	92	27.1	0	0	---	0.00	30.355 
04:40	29.3	29.3	29.3	92	27.3	0	0	---	0.00	30.355 
04:45	29.4	29.4	29.4	92	27.4	0	0	---	0.00	30.355 
04:50	29.4	29.4	29.4	92	27.4	0	0	---	0.00	30.355 
04:55	29.7	29.7	29.7	92	27.7	0	0	---	0.00	30.355 
05:00	29.8	29.8	29.8	92	27.8	0	0	---	0.00	30.356 
05:05	30.0	30.0	30.0	92	28.0	0	0	---	0.00	30.356 
05:10	30.0	30.0	30.0	92	28.0	0	0	---	0.00	30.356 
05:15	30.1	30.1	30.1	92	28.1	0	0	---	0.00	30.361 
05:20	30.0	30.0	30.0	92	28.0	0	0	---	0.00	30.361 
05:25	30.0	30.0	30.0	92	28.0	0	0	---	0.00	30.361 
05:30	30.0	30.0	30.0	92	28.0	0	0	---	0.00	30.356 
05:35	30.0	30.0	30.0	92	28.0	0	0	---	0.00	30.356 
05:40	30.0	30.0	30.0	92	28.0	0	0	---	0.00	30.356 
05:45	30.1	30.1	30.1	93	28.3	0	0	---	0.00	30.354 
05:50	30.1	30.1	30.1	93	28.3	0	0	---	0.00	30.354 
05:55	30.1	30.1	30.1	93	28.3	0	0	---	0.00	30.354 
06:00	30.1	30.1	30.1	93	28.3	0	0	---	0.00	30.350 
06:05	30.1	30.1	30.1	93	28.3	0	0	---	0.00	30.350 
06:10	30.0	30.0	30.0	93	28.2	0	0	---	0.00	30.350 
06:15	30.0	30.0	30.0	92	28.0	0	0	---	0.00	30.356 
06:20	29.8	29.8	29.8	93	28.0	0	0	---	0.00	30.356 
06:25	29.7	29.7	29.7	92	27.7	0	0	---	0.00	30.356 
06:30	29.5	29.5	29.5	92	27.5	0	0	---	0.00	30.361 
06:35	29.4	29.4	29.4	92	27.4	0	0	---	0.00	30.361 
06:40	29.4	29.4	29.4	92	27.4	0	0	---	0.00	30.361 
06:45	29.1	29.1	29.1	92	27.1	0	0	---	0.00	30.362 
06:50	29.1	29.1	29.1	92	27.1	0	0	---	0.00	30.362 
06:55	29.0	29.0	29.0	92	27.0	0	0	---	0.00	30.362 
07:00	28.8	28.8	28.8	92	26.8	0	0	---	0.00	30.363 
07:05	28.7	28.7	28.7	93	26.9	0	0	---	0.00	30.363 
07:10	28.8	28.8	28.8	93	27.0	0	0	---	0.00	30.363 
07:15	29.0	29.0	29.0	93	27.2	0	0	---	0.00	30.357 
07:20	29.0	29.0	29.0	93	27.2	0	0	---	0.00	30.357 
07:25	29.0	29.0	29.0	93	27.2	0	0	---	0.00	30.357 
07:30	29.1	29.1	29.1	93	27.3	0	0	---	0.00	30.365 
07:35	29.3	29.3	29.3	93	27.5	0	0	---	0.00	30.365 
07:40	29.4	29.4	29.4	93	27.6	0	0	---	0.00	30.365 
07:45	29.7	29.7	29.7	93	27.9	0	0	---	0.00	30.363 
07:50	29.8	29.8	29.8	93	28.0	0	0	---	0.00	30.363 
07:55	30.0	30.0	30.0	93	28.2	0	0	---	0.00	30.363 
08:00	30.1	30.1	30.1	93	28.3	0	0	---	0.00	30.363 
08:05	30.3	30.3	30.3	94	28.8	0	0	---	0.00	30.363 
08:10	30.7	30.7	30.7	94	29.2	0	0	---	0.00	30.363 
08:15	31.0	31.0	31.0	94	29.5	0	1	68	0.00	30.365 
08:20	31.5	31.5	31.5	94	30.0	0	2	68	0.00	30.365 
08:25	31.6	31.6	31.6	94	30.1	0	1	68	0.00	30.365 
08:30	31.9	31.9	31.9	94	30.4	0	1	68	0.00	30.362 
08:35	32.1	32.1	32.1	94	30.6	0	2	68	0.00	30.362 
08:40	32.2	32.2	32.2	94	30.7	0	1	68	0.00	30.362 
08:45	32.4	32.4	32.4	93	30.6	0	2	68	0.00	30.363 
08:50	32.5	32.5	32.5	93	30.7	0	1	68	0.00	30.363 
08:55	32.7	32.7	32.7	93	30.9	0	2	68	0.00	30.363 
09:00	32.7	32.7	32.7	93	30.9	0	0	---	0.00	30.364 
09:05	32.8	32.8	32.8	93	31.0	0	0	---	0.00	30.364 
09:10	32.9	32.9	32.9	93	31.1	0	0	---	0.00	30.364 
09:15	33.2	33.2	33.2	93	31.4	0	1	68	0.00	30.362 
09:20	33.8	33.8	33.8	93	32.0	0	1	68	0.00	30.362 
09:25	34.6	34.6	34.6	92	32.5	0	2	68	0.00	30.362 
09:30	35.2	35.2	35.2	91	32.8	0	2	68	0.00	30.357 
09:35	35.6	35.6	35.6	90	33.0	0	2	68	0.00	30.357 
09:40	36.0	36.0	36.0	88	32.8	0	2	68	0.00	30.357 
09:45	36.5	36.5	36.5	88	33.3	0	1	68	0.00	30.347 
09:50	36.9	36.9	36.9	87	33.4	0	0	---	0.00	30.347 
09:55	37.3	37.3	37.3	86	33.5	0	2	68	0.00	30.347 
10:00	37.9	37.9	37.9	85	33.8	0	2	68	0.00	30.343 
10:05	38.6	38.6	38.6	84	34.2	0	2	68	0.00	30.343 
10:10	39.5	39.5	39.5	83	34.8	0	2	68	0.00	30.343 
10:15	40.1	40.1	40.1	80	34.4	0	3	68	0.00	30.344 
10:20	40.9	40.9	40.9	79	34.9	0	2	68	0.00	30.344 
10:25	41.5	41.5	41.5	77	34.8	0	2	68	0.00	30.344 
10:30	42.2	42.2	42.2	75	34.9	0	2	68	0.00	30.357 
10:35	42.5	42.5	42.5	73	34.5	0	2	68	0.00	30.357 
10:40	42.9	42.9	42.9	72	34.5	0	1	68	0.00	30.357 
10:45	43.3	43.3	43.3	70	34.2	0	1	68	0.00	30.357 
10:50	43.8	43.8	43.8	69	34.3	0	1	68	0.00	30.357 
10:55	44.1	44.1	44.1	67	33.9	0	1	68	0.00	30.357 
11:00	44.5	44.5	44.5	66	33.9	0	1	68	0.00	30.354 
11:05	44.8	44.8	44.8	66	34.1	0	1	68	0.00	30.354 
11:10	45.4	45.4	45.4	66	34.7	0	1	68	0.00	30.354 
11:15	46.0	46.0	46.0	64	34.5	0	1	68	0.00	30.351 
11:20	46.5	46.5	46.5	62	34.2	0	1	68	0.00	30.351 
11:25	47.0	47.0	47.0	61	34.3	0	2	68	0.00	30.351 
11:30	47.4	47.4	47.4	60	34.2	0	1	68	0.00	30.344 
11:35	47.9	47.9	47.9	60	34.7	0	1	68	0.00	30.344 
11:40	48.2	48.2	48.2	58	34.1	0	2	68	0.00	30.344 
11:45	48.8	48.8	48.8	56	33.8	0	2	68	0.00	30.333 
11:50	49.1	49.1	49.1	57	34.5	0	1	68	0.00	30.333 
11:55	49.5	49.5	49.5	54	33.6	0	2	68	0.00	30.333 
12:00	50.1	50.1	50.1	52	33.2	0	2	68	0.00	30.326 
12:05	50.5	50.5	50.5	52	33.5	0	2	68	0.00	30.326 
12:10	50.8	50.8	50.8	52	33.8	0	2	68	0.00	30.326 
12:15	51.3	51.3	51.3	51	33.8	0	1	68	0.00	30.317 
12:20	51.6	51.6	51.6	48	32.6	0	2	68	0.00	30.317 
12:25	51.9	51.9	51.9	51	34.3	0	2	68	0.00	30.317 
12:30	52.0	52.0	52.0	50	33.9	0	3	68	0.00	30.305 
12:35	52.2	52.2	52.2	51	34.6	0	1	68	0.00	30.305 
12:40	52.3	52.3	52.3	50	34.2	0	3	68	0.00	30.305 
12:45	52.6	52.6	52.6	51	35.0	0	1	68	0.00	30.295 
12:50	52.8	52.8	52.8	46	32.6	0	1	68	0.00	30.295 
12:55	53.1	53.1	53.1	48	33.9	0	1	68	0.00	30.295 
13:00	53.1	53.1	53.1	48	33.9	1	3	68	0.00	30.286 
13:05	53.2	53.2	53.2	47	33.5	0	1	68	0.00	30.286 
13:10	53.3	53.3	53.3	47	33.6	0	2	68	0.00	30.286 
13:15	53.3	53.3	53.3	46	33.1	0	2	68	0.00	30.283 
13:20	53.5	53.5	53.5	46	33.2	0	1	68	0.00	30.283 
13:25	53.6	53.6	53.6	47	33.9	0	2	68	0.00	30.283 
13:30	53.8	53.8	53.8	46	33.5	0	2	68	0.00	30.280 
13:35	53.8	53.8	53.8	46	33.5	0	1	68	0.00	30.280 
13:40	53.9	53.9	53.9	46	33.6	0	2	68	0.00	30.280 
13:45	53.9	53.9	53.9	46	33.6	0	1	68	0.00	30.273 
13:50	54.1	54.1	54.1	46	33.8	0	1	68	0.00	30.273 
13:55	54.2	54.2	54.2	47	34.4	0	1	68	0.00	30.273 
14:00	54.4	54.4	54.4	45	33.5	0	2	68	0.00	30.274 
14:05	54.5	54.5	54.5	46	34.1	1	2	68	0.00	30.274 
14:10	54.7	54.7	54.7	46	34.3	0	2	68	0.00	30.274 
14:15	55.1	55.1	55.1	44	33.6	1	3	68	0.00	30.263 
14:20	55.3	55.3	55.3	44	33.8	1	3	68	0.00	30.263 
14:25	55.4	55.4	55.4	43	33.3	1	4	68	0.00	30.263 
14:30	55.4	55.4	55.4	42	32.7	1	2	68	0.00	30.258 
14:35	55.6	55.6	55.6	44	34.0	1	3	68	0.00	30.258 
14:40	55.7	55.7	55.7	43	33.6	0	2	68	0.00	30.258 
14:45	55.7	55.7	55.7	43	33.6	0	2	68	0.00	30.256 
14:50	55.9	55.9	55.9	44	34.3	1	3	68	0.00	30.256 
14:55	55.9	55.9	55.9	43	33.7	0	1	68	0.00	30.256 
15:00	55.9	55.9	55.9	43	33.7	1	4	68	0.00	30.254 
15:05	55.9	55.9	55.9	42	33.1	1	3	68	0.00	30.254 
15:10	55.7	55.7	55.7	42	33.0	1	2	68	0.00	30.254 
15:15	55.7	55.7	55.7	41	32.4	0	2	68	0.00	30.247 
15:20	55.7	55.7	55.7	41	32.4	0	2	68	0.00	30.247 
15:25	55.9	55.9	55.9	41	32.5	0	2	68	0.00	30.247 
15:30	55.9	55.9	55.9	39	31.3	1	3	68	0.00	30.243 
15:35	55.9	55.9	55.9	40	31.9	0	2	68	0.00	30.243 
15:40	55.9	55.9	55.9	40	31.9	0	2	68	0.00	30.243 
15:45	55.7	55.7	55.7	42	33.0	0	2	68	0.00	30.241 
15:50	55.6	55.6	55.6	40	31.7	0	2	68	0.00	30.241 
15:55	55.6	55.6	55.6	42	32.9	0	2	68	0.00	30.241 
16:00	55.6	55.6	55.6	43	33.5	1	2	68	0.00	30.239 
16:05	55.4	55.4	55.4	43	33.3	1	3	68	0.00	30.239 
16:10	55.3	55.3	55.3	43	33.2	1	2	68	0.00	30.239 
16:15	55.3	55.3	55.3	43	33.2	0	2	68	0.00	30.240 
16:20	55.1	55.1	55.1	43	33.0	0	1	68	0.00	30.240 
16:25	55.0	55.0	55.0	43	32.9	0	1	68	0.00	30.240 
16:30	55.0	55.0	55.0	45	34.1	0	0	---	0.00	30.241 
16:35	54.8	54.8	54.8	44	33.3	0	0	---	0.00	30.241 
16:40	54.5	54.5	54.5	45	33.6	0	0	---	0.00	30.241 
16:45	54.4	54.4	54.4	46	34.1	0	0	---	0.00	30.240 
16:50	53.9	53.9	53.9	46	33.6	0	0	---	0.00	30.240 
16:55	53.6	53.6	53.6	48	34.4	0	0	---	0.00	30.240 
17:00	53.2	53.2	53.2	48	34.0	0	0	---	0.00	30.236 
17:05	52.8	52.8	52.8	50	34.7	0	0	---	0.00	30.236 
17:10	52.3	52.3	52.3	51	34.7	0	0	---	0.00	30.236 
17:15	51.9	51.9	51.9	52	34.8	0	0	---	0.00	30.230 
17:20	51.4	51.4	51.4	53	34.8	0	0	---	0.00	30.230 
17:25	51.0	51.0	51.0	54	34.9	0	0	---	0.00	30.230 
17:30	50.7	50.7	50.7	55	35.1	0	0	---	0.00	30.230 
17:35	50.4	50.4	50.4	56	35.3	0	0	---	0.00	30.230 
17:40	50.1	50.1	50.1	56	35.0	0	0	---	0.00	30.230 
17:45	49.8	49.8	49.8	56	34.7	0	0	---	0.00	30.231 
17:50	49.5	49.5	49.5	57	34.9	0	0	---	0.00	30.231 
17:55	49.2	49.2	49.2	57	34.6	0	0	---	0.00	30.231 
18:00	49.1	49.1	49.1	58	35.0	0	0	---	0.00	30.232 
18:05	48.8	48.8	48.8	60	35.5	0	0	---	0.00	30.232 
18:10	48.5	48.5	48.5	62	36.1	0	0	---	0.00	30.232 
18:15	48.2	48.2	48.2	61	35.4	0	0	---	0.00	30.230 
18:20	47.9	47.9	47.9	62	35.5	0	0	---	0.00	30.230 
18:25	47.7	47.7	47.7	62	35.3	0	0	---	0.00	30.230 
18:30	47.9	47.9	47.9	61	35.1	0	2	68	0.00	30.221 
18:35	48.5	48.5	48.5	58	34.4	0	2	68	0.00	30.221 
18:40	48.8	48.8	48.8	58	34.7	0	1	68	0.00	30.221 
18:45	48.9	48.9	48.9	58	34.8	0	0	---	0.00	30.223 
18:50	48.9	48.9	48.9	58	34.8	0	0	---	0.00	30.223 
18:55	48.9	48.9	48.9	57	34.3	0	0	---	0.00	30.223 
19:00	48.8	48.8	48.8	58	34.7	0	0	---	0.00	30.221 
19:05	48.6	48.6	48.6	58	34.5	0	0	---	0.00	30.221 
19:10	48.5	48.5	48.5	58	34.4	0	0	---	0.00	30.221 
19:15	48.3	48.3	48.3	59	34.6	0	0	---	0.00	30.224 
19:20	48.0	48.0	48.0	59	34.4	0	0	---	0.00	30.224 
19:25	47.9	47.9	47.9	60	34.7	0	0	---	0.00	30.224 
19:30	47.6	47.6	47.6	61	34.8	0	0	---	0.00	30.224 
19:35	47.4	47.4	47.4	61	34.6	0	0	---	0.00	30.224 
19:40	47.3	47.3	47.3	62	34.9	0	0	---	0.00	30.224 
19:45	47.0	47.0	47.0	63	35.1	0	0	---	0.00	30.225 
19:50	46.8	46.8	46.8	63	34.9	0	0	---	0.00	30.225 
19:55	46.7	46.7	46.7	63	34.8	0	0	---	0.00	30.225 
20:00	46.5	46.5	46.5	64	35.0	0	0	---	0.00	30.225 
20:05	46.4	46.4	46.4	65	35.3	0	0	---	0.00	30.225 
20:10	46.2	46.2	46.2	65	35.1	0	1	68	0.00	30.225 
20:15	46.1	46.1	46.1	65	35.0	0	1	68	0.00	30.213 
20:20	46.1	46.1	46.1	65	35.0	0	0	---	0.00	30.213 
20:25	46.1	46.1	46.1	64	34.6	0	1	68	0.00	30.213 
20:30	46.1	46.1	46.1	64	34.6	0	0	---	0.00	30.213 
20:35	46.0	46.0	46.0	64	34.5	0	0	---	0.00	30.213 
20:40	46.0	46.0	46.0	64	34.5	0	0	---	0.00	30.213 
20:45	45.8	45.8	45.8	65	34.7	0	0	---	0.00	30.214 
20:50	45.8	45.8	45.8	64	34.3	0	0	---	0.00	30.214 
20:55	45.7	45.7	45.7	65	34.6	0	0	---	0.00	30.214 
21:00	45.5	45.5	45.5	65	34.4	0	0	---	0.00	30.217 
21:05	45.5	45.5	45.5	66	34.8	0	0	---	0.00	30.217 
21:10	45.4	45.4	45.4	67	35.1	0	0	---	0.00	30.217 
21:15	45.2	45.2	45.2	67	34.9	0	0	---	0.00	30.210 
21:20	45.1	45.1	45.1	67	34.8	0	0	---	0.00	30.210 
21:25	45.1	45.1	45.1	67	34.8	0	0	---	0.00	30.210 
21:30	44.9	44.9	44.9	68	35.0	0	0	---	0.00	30.205 
21:35	44.8	44.8	44.8	68	34.9	0	0	---	0.00	30.205 
21:40	44.5	44.5	44.5	68	34.6	0	0	---	0.00	30.205 
21:45	44.3	44.3	44.3	68	34.4	0	0	---	0.00	30.197 
21:50	44.2	44.2	44.2	68	34.3	0	0	---	0.00	30.197 
21:55	44.1	44.1	44.1	68	34.2	0	0	---	0.00	30.197 
22:00	43.9	43.9	43.9	69	34.4	0	0	---	0.00	30.196 
22:05	43.8	43.8	43.8	69	34.3	0	0	---	0.00	30.196 
22:10	43.8	43.8	43.8	71	35.0	0	0	---	0.00	30.196 
22:15	43.6	43.6	43.6	72	35.2	0	0	---	0.00	30.189 
22:20	43.5	43.5	43.5	71	34.7	0	0	---	0.00	30.189 
22:25	43.3	43.3	43.3	72	34.9	0	0	---	0.00	30.189 
22:30	43.3	43.3	43.3	72	34.9	0	0	---	0.00	30.175 
22:35	43.2	43.2	43.2	73	35.1	0	0	---	0.00	30.175 
22:40	43.1	43.1	43.1	73	35.0	0	0	---	0.00	30.175 
22:45	42.9	42.9	42.9	73	34.9	0	0	---	0.00	30.174 
22:50	42.8	42.8	42.8	73	34.8	0	0	---	0.00	30.174 
22:55	42.8	42.8	42.8	74	35.1	0	0	---	0.00	30.174 
23:00	42.6	42.6	42.6	73	34.6	0	0	---	0.00	30.167 
23:05	42.6	42.6	42.6	73	34.6	0	0	---	0.00	30.167 
23:10	42.6	42.6	42.6	73	34.6	0	0	---	0.00	30.167 
23:15	42.5	42.5	42.5	73	34.5	0	0	---	0.00	30.164 
23:20	42.5	42.5	42.5	74	34.8	0	0	---	0.00	30.164 
23:25	42.5	42.5	42.5	74	34.8	0	0	---	0.00	30.164 
23:30	42.5	42.5	42.5	74	34.8	0	0	---	0.00	30.166 
23:35	42.5	42.5	42.5	74	34.8	0	0	---	0.00	30.166 
23:40	42.5	42.5	42.5	74	34.8	0	0	---	0.00	30.166 
23:45	42.5	42.5	42.5	74	34.8	0	0	---	0.00	30.156 
23:50	42.5	42.5	42.5	74	34.8	0	0	---	0.00	30.156 
23:55	42.5	42.5	42.5	74	34.8	0	0	---	0.00	30.156 

CoCoRaHS
IN-AL-39
A2 Web Hosting
Creative Commons License
GoDaddy
search engine by freefind advanced

loaded 2018-11-14 03:38:00 • last modified 2010-11-18 10:43:29
Privacy PolicyDisclaimer
• wx.awcolley.com is powered by PmWiki v.2002016 •
• all content (unless otherwise noted) © 2018 A W Colley